Aérodrome :
LOGIN :

S'inscrire | Disclaimer

   EN    FR    IT 

 










Légende :    VFR   VFR Marginal   IFR   IFR Intensif   IFR Très Intensif
Visi : 
Plafond : 
>= 8 km
>= 3000ft
5 à 8 km
1000 à 3000 ft
1500m à 5 km
500 à 1000 ft
800 à 1500m
200 à 500 ft
< 800m
< 200 ft
Symboles :   Orages  Brouillard  Fortes neiges  Fortes précipitations  Vent > 20 kt
SIGMETs :   Divers  Orages  Givrage  Turbulence  Onde Orograph.  Cendres Volcan.






- Altitude de l'aérodrome : 686 ft
- Code IATA : URS


UUOK - Vostochny

DERNIER METAR :
  • 180700Z 28006MPS 250V310 9999 OVC013CB 10/06 Q1010 R30/CLRD65 NOSIG RMK QFE739/0985

METARs EXPIRÉS :
  • 180630Z 28005MPS 9999 OVC012 09/06 Q1010 R30/CLRD65 NOSIG RMK QFE739/0985
  • 180600Z 27005MPS 9999 OVC011 09/06 Q1009 R30/CLRD65 NOSIG RMK QFE738/0985
  • 180530Z 27007MPS 9999 OVC011 09/06 Q1009 R30/CLRD65 NOSIG RMK QFE738/0985
  • 180500Z 28005MPS 9999 OVC011 09/06 Q1009 R30/CLRD65 NOSIG RMK QFE738/0985
  • 180430Z 29006MPS 9999 OVC011 08/06 Q1010 R30/CLRD65 NOSIG RMK QFE738/0985

TAF TAF UUOK
Valide du 18 à 06h jusqu'au 18 à 15h UTC


180500Z 1806/1815 27008G13MPS 9999 SCT011 BKN020
TEMPO 1807/1813 28010G15MPS -SHRA BKN015CB



MET'MAP, la Météo Aéronautique d'un coup d'oeil ! - Copyright ORBIFLY Décembre 2007 - Disclaimer

ORBIFLY MET'MAP TEAM :

Programmation & Développement : Alexandra Zaïnal
Sur une idée originale de : Baudouin d'Aumeries
Assistance à la programmation : Marc-Olivier Méhu
Soutien technique & logistique : Manuel Goepfert

Contact : metmap@orbifly.com




SOURCES & CREDITS :

   NOAA